Time;durP1;ratioP1;P1;durP2;ratioP2;P2;SDS_P1;SDS_P2;PMS_P1;PMS_P2;Temp;Humidity;BMP_temperature;BMP_pressure;BME280_temperature;BME280_humidity;BME280_pressure;Samples;Min_cycle;Max_cycle;Signal;HPM_P1;HPM_P2
2022/03/05 00:03:25;;;;;;;11.88;7.22;;;;;;;0.47;41.16;95938.41;10276870;28;97230;-78
2022/03/05 00:08:28;;;;;;;10.88;6.13;;;;;;;0.18;41.27;95940.97;10290739;28;97531;-78
2022/03/05 00:13:31;;;;;;;7.78;4.50;;;;;;;0.01;42.09;95935.09;10279238;28;97230;-78
2022/03/05 00:18:35;;;;;;;5.43;3.55;;;;;;;0.04;41.10;95945.16;10286439;28;96888;-78
2022/03/05 00:23:39;;;;;;;5.95;3.28;;;;;;;-0.16;42.19;95933.53;10271702;28;97980;-78
2022/03/05 00:28:42;;;;;;;5.70;3.45;;;;;;;-0.12;42.07;95939.28;10284187;28;96873;-78
2022/03/05 00:33:46;;;;;;;6.03;3.83;;;;;;;-0.32;42.59;95943.00;10286811;28;96955;-78
2022/03/05 00:38:49;;;;;;;7.68;4.30;;;;;;;-0.30;41.70;95948.06;10291004;28;97240;-78
2022/03/05 00:43:51;;;;;;;6.40;3.53;;;;;;;-0.31;42.16;95952.38;10287271;28;98058;-78
2022/03/05 00:48:56;;;;;;;6.13;3.45;;;;;;;-0.35;41.93;95944.03;10279143;28;96813;-78
2022/03/05 00:54:00;;;;;;;5.87;3.50;;;;;;;-0.52;42.23;95942.41;10300346;28;96862;-78
2022/03/05 00:59:03;;;;;;;7.25;4.15;;;;;;;-0.56;42.29;95945.25;10287525;28;97144;-78
2022/03/05 01:04:07;;;;;;;7.63;4.45;;;;;;;-0.51;42.18;95953.53;10292973;28;96903;-78
2022/03/05 01:09:10;;;;;;;7.40;4.03;;;;;;;-0.46;42.26;95951.50;10291820;28;98060;-77
2022/03/05 01:14:13;;;;;;;7.53;4.10;;;;;;;-0.47;43.05;95949.88;10298607;28;96858;-77
2022/03/05 01:19:17;;;;;;;5.78;3.78;;;;;;;-0.60;43.33;95948.91;10295321;28;96878;-78
2022/03/05 01:24:20;;;;;;;8.40;4.40;;;;;;;-0.79;44.14;95960.22;10283689;28;98411;-78
2022/03/05 01:29:24;;;;;;;7.32;4.05;;;;;;;-1.00;44.51;95954.50;10280892;28;97235;-78
2022/03/05 01:34:28;;;;;;;6.57;4.25;;;;;;;-1.00;44.44;95956.25;10284316;28;97105;-78
2022/03/05 01:39:31;;;;;;;6.93;4.07;;;;;;;-1.01;44.11;95959.75;10271802;28;97077;-78
2022/03/05 01:44:34;;;;;;;8.82;4.13;;;;;;;-1.10;43.70;95954.19;10282610;28;97015;-78
2022/03/05 01:49:39;;;;;;;7.32;4.57;;;;;;;-1.23;44.74;95950.63;10300595;28;96967;-78
2022/03/05 01:54:43;;;;;;;8.90;5.05;;;;;;;-1.30;45.00;95954.44;10267694;28;97393;-78
2022/03/05 01:59:46;;;;;;;7.30;4.47;;;;;;;-1.30;45.14;95951.88;10274928;28;97018;-78
2022/03/05 02:04:50;;;;;;;9.98;5.40;;;;;;;-1.39;44.66;95945.50;10292920;28;96896;-78
2022/03/05 02:09:54;;;;;;;10.00;5.70;;;;;;;-1.48;45.71;95946.81;10293278;28;96808;-78
2022/03/05 02:14:58;;;;;;;7.40;4.90;;;;;;;-1.60;45.48;95947.47;10293931;28;96830;-78
2022/03/05 02:20:04;;;;;;;9.10;5.40;;;;;;;-1.72;46.19;95945.56;10278164;28;96806;-78
2022/03/05 02:25:09;;;;;;;11.85;6.13;;;;;;;-1.88;46.75;95945.53;10285630;28;96930;-77
2022/03/05 02:30:13;;;;;;;10.05;5.25;;;;;;;-1.98;46.98;95946.91;10292878;28;97295;-77
2022/03/05 02:35:16;;;;;;;10.73;5.70;;;;;;;-2.03;46.59;95939.44;10289109;28;97078;-78
2022/03/05 02:40:20;;;;;;;9.82;5.88;;;;;;;-2.12;47.74;95940.75;10278143;28;97594;-78
2022/03/05 02:45:23;;;;;;;9.13;5.38;;;;;;;-2.18;47.34;95933.38;10268714;28;97333;-77
2022/03/05 02:50:26;;;;;;;9.25;5.28;;;;;;;-2.26;46.28;95938.06;10277269;28;96946;-77
2022/03/05 02:55:31;;;;;;;8.13;5.28;;;;;;;-2.31;47.21;95938.28;10285691;28;96921;-77
2022/03/05 03:00:34;;;;;;;12.30;5.73;;;;;;;-2.47;48.30;95935.66;10272428;28;99885;-77
2022/03/05 03:05:37;;;;;;;9.55;5.75;;;;;;;-2.48;48.36;95933.19;10286843;28;97558;-77
2022/03/05 03:10:41;;;;;;;10.88;6.63;;;;;;;-2.54;49.87;95939.44;10280128;28;96754;-77
2022/03/05 03:15:44;;;;;;;10.20;5.90;;;;;;;-2.61;49.41;95944.03;10277335;28;96907;-77
2022/03/05 03:20:47;;;;;;;12.95;6.80;;;;;;;-2.68;49.96;95940.13;10293420;28;98116;-77
2022/03/05 03:25:51;;;;;;;13.52;7.22;;;;;;;-2.71;50.40;95935.13;10282751;28;96971;-77
2022/03/05 03:30:54;;;;;;;12.85;7.65;;;;;;;-2.67;50.07;95939.19;10292130;28;96770;-77
2022/03/05 03:35:58;;;;;;;15.70;7.55;;;;;;;-2.74;48.50;95931.91;10279300;28;96872;-77
2022/03/05 03:41:02;;;;;;;12.02;7.18;;;;;;;-2.76;49.13;95928.59;10287258;28;98121;-77
2022/03/05 03:46:05;;;;;;;12.65;7.20;;;;;;;-2.85;49.69;95930.69;10267496;28;96890;-77
2022/03/05 03:51:08;;;;;;;12.07;7.22;;;;;;;-2.95;49.99;95939.69;10259563;28;97027;-78
2022/03/05 03:56:12;;;;;;;13.05;8.00;;;;;;;-3.13;51.27;95941.41;10287899;28;96931;-77
2022/03/05 04:01:15;;;;;;;11.15;6.88;;;;;;;-3.13;51.35;95946.50;10290118;28;97339;-77
2022/03/05 04:06:18;;;;;;;12.07;6.80;;;;;;;-3.20;50.91;95948.53;10275836;28;96829;-77
2022/03/05 04:11:23;;;;;;;11.73;7.00;;;;;;;-3.20;51.53;95940.84;10270483;28;97532;-77
2022/03/05 04:16:25;;;;;;;12.07;7.50;;;;;;;-3.16;50.79;95944.91;10273376;28;98175;-77
2022/03/05 04:21:28;;;;;;;13.48;8.07;;;;;;;-3.14;50.86;95939.72;10277516;28;97113;-77
2022/03/05 04:26:33;;;;;;;13.07;7.40;;;;;;;-3.14;49.72;95942.28;10296805;28;96905;-77
2022/03/05 04:31:36;;;;;;;12.82;6.80;;;;;;;-3.18;50.61;95943.34;10288096;28;97783;-78
2022/03/05 04:36:39;;;;;;;10.77;6.70;;;;;;;-3.32;50.67;95940.56;10308139;28;97447;-78
2022/03/05 04:41:43;;;;;;;12.48;6.50;;;;;;;-3.42;50.14;95940.19;10306624;28;98270;-77
2022/03/05 04:46:47;;;;;;;13.05;7.22;;;;;;;-3.47;50.55;95948.06;10300755;28;96923;-77
2022/03/05 04:51:54;;;;;;;12.50;6.93;;;;;;;-3.57;50.56;95946.81;10271818;28;96834;-77
2022/03/05 04:56:58;;;;;;;11.20;6.63;;;;;;;-3.66;51.65;95948.03;10301973;28;99776;-77
2022/03/05 05:02:02;;;;;;;11.40;6.68;;;;;;;-3.75;51.94;95949.28;10296261;28;96820;-77
2022/03/05 05:07:05;;;;;;;12.60;6.63;;;;;;;-3.82;51.60;95947.91;10292361;28;96889;-77
2022/03/05 05:12:11;;;;;;;14.55;7.85;;;;;;;-3.86;52.65;95946.38;10301323;28;96936;-77
2022/03/05 05:17:14;;;;;;;11.20;6.85;;;;;;;-3.83;52.64;95956.44;10294599;28;96843;-77
2022/03/05 05:22:17;;;;;;;11.73;6.68;;;;;;;-3.78;52.20;95959.63;10297229;28;97170;-77
2022/03/05 05:27:21;;;;;;;14.48;7.22;;;;;;;-3.84;52.32;95967.56;10280652;28;97974;-77
2022/03/05 05:32:24;;;;;;;14.70;7.13;;;;;;;-3.92;52.42;95969.63;10297466;28;96987;-77
2022/03/05 05:37:27;;;;;;;13.18;7.43;;;;;;;-3.92;52.20;95972.97;10299069;28;97042;-77
2022/03/05 05:42:32;;;;;;;15.70;8.52;;;;;;;-3.91;52.28;95968.72;10291900;28;98648;-77
2022/03/05 05:47:35;;;;;;;15.13;8.20;;;;;;;-4.03;52.17;95969.25;10286046;28;96975;-77
2022/03/05 05:52:39;;;;;;;16.45;8.20;;;;;;;-4.12;52.02;95978.97;10290982;28;97243;-77
2022/03/05 05:57:43;;;;;;;13.68;7.35;;;;;;;-4.18;51.95;95986.03;10277972;28;96969;-77
2022/03/05 06:02:46;;;;;;;13.40;7.80;;;;;;;-4.26;51.71;95983.81;10291382;28;96868;-77
2022/03/05 06:07:49;;;;;;;13.20;7.68;;;;;;;-4.22;51.78;95998.09;10288317;28;98048;-77
2022/03/05 06:12:53;;;;;;;16.13;7.93;;;;;;;-4.16;51.74;96000.38;10290549;28;97154;-77
2022/03/05 06:17:57;;;;;;;15.20;8.63;;;;;;;-4.16;52.33;95995.25;10273802;28;96980;-77
2022/03/05 06:23:00;;;;;;;13.55;7.72;;;;;;;-4.17;53.12;95998.72;10279812;28;96867;-77
2022/03/05 06:28:05;;;;;;;17.17;8.82;;;;;;;-4.20;53.80;95998.84;10286584;28;96925;-77
2022/03/05 06:33:08;;;;;;;14.13;7.22;;;;;;;-4.24;52.21;96007.53;10282047;28;97248;-77
2022/03/05 06:38:11;;;;;;;12.77;7.22;;;;;;;-4.29;52.32;96009.44;10280687;28;96996;-77
2022/03/05 06:43:16;;;;;;;16.33;7.93;;;;;;;-4.24;52.31;96007.53;10277526;28;96883;-77
2022/03/05 06:48:19;;;;;;;15.93;8.80;;;;;;;-4.09;53.28;96013.69;10290113;28;96817;-77
2022/03/05 06:53:22;;;;;;;12.80;7.00;;;;;;;-4.00;52.00;96015.03;10282789;28;96898;-77
2022/03/05 06:58:26;;;;;;;16.20;8.25;;;;;;;-3.95;51.54;96008.00;10293976;28;98901;-77
2022/03/05 07:03:29;;;;;;;15.02;8.00;;;;;;;-3.98;51.25;96015.78;10279027;28;97029;-77
2022/03/05 07:08:32;;;;;;;13.88;8.07;;;;;;;-3.98;51.20;96023.44;10271803;28;96999;-71
2022/03/05 07:13:36;;;;;;;15.93;8.05;;;;;;;-4.00;50.73;96021.00;10274159;28;97214;-71
2022/03/05 07:18:40;;;;;;;16.50;8.80;;;;;;;-3.93;50.81;96027.50;10263300;28;96865;-71
2022/03/05 07:23:43;;;;;;;12.52;7.95;;;;;;;-3.85;51.34;96034.81;10271309;28;96997;-71
2022/03/05 07:28:47;;;;;;;19.15;8.65;;;;;;;-3.76;50.74;96031.84;10273835;28;96925;-71
2022/03/05 07:33:50;;;;;;;16.10;9.35;;;;;;;-3.69;50.89;96034.16;10266469;28;97158;-71
2022/03/05 07:38:53;;;;;;;17.88;10.93;;;;;;;-3.47;51.41;96045.09;10268867;28;97154;-71
2022/03/05 07:43:59;;;;;;;19.20;10.57;;;;;;;-3.04;52.66;96040.63;10274428;28;96855;-71
2022/03/05 07:49:03;;;;;;;17.35;10.15;;;;;;;-2.75;52.94;96043.56;10286883;28;97354;-71
2022/03/05 07:54:06;;;;;;;16.35;8.95;;;;;;;-2.64;51.32;96049.00;10265636;28;97227;-71
2022/03/05 07:59:10;;;;;;;17.20;9.20;;;;;;;-2.68;51.06;96044.94;10271536;28;97039;-71
2022/03/05 08:04:13;;;;;;;17.77;10.43;;;;;;;-2.78;50.13;96059.88;10272543;28;96772;-71
2022/03/05 08:09:16;;;;;;;19.63;9.82;;;;;;;-2.84;49.96;96059.31;10262227;28;97005;-71
2022/03/05 08:14:20;;;;;;;17.88;10.77;;;;;;;-2.76;49.97;96049.59;10284855;28;96895;-71
2022/03/05 08:19:23;;;;;;;18.90;10.80;;;;;;;-2.52;51.24;96051.91;10282151;28;97117;-71
2022/03/05 08:24:46;;;;;;;17.17;10.18;;;;;;;-2.22;49.42;96052.97;10263352;28;97760;-71
2022/03/05 08:29:51;;;;;;;21.23;11.43;;;;;;;-1.85;50.52;96045.22;10276424;28;96984;-71
2022/03/05 08:34:53;;;;;;;20.63;11.63;;;;;;;-1.53;50.13;96053.03;10292272;28;97777;-71
2022/03/05 08:39:56;;;;;;;16.80;10.30;;;;;;;-1.26;50.01;96040.50;10281685;28;96941;-71
2022/03/05 08:45:01;;;;;;;20.63;12.23;;;;;;;-0.99;49.99;96045.91;10277470;28;96943;-71
2022/03/05 08:50:06;;;;;;;23.03;11.47;;;;;;;-0.77;50.30;96039.59;10270352;28;97391;-71
2022/03/05 08:55:11;;;;;;;19.75;10.73;;;;;;;-0.66;50.36;96037.31;10280090;28;96977;-72
2022/03/05 09:00:17;;;;;;;18.00;11.00;;;;;;;-0.46;50.48;96040.50;10261398;28;98754;-71
2022/03/05 09:05:20;;;;;;;30.15;18.05;;;;;;;-0.27;49.97;96032.59;10280792;28;96901;-71
2022/03/05 09:10:23;;;;;;;19.35;11.35;;;;;;;-0.06;50.73;96031.41;10279268;28;96910;-71
2022/03/05 09:15:27;;;;;;;20.65;11.05;;;;;;;0.08;50.10;96027.19;10281151;28;97032;-71
2022/03/05 09:20:30;;;;;;;19.27;11.27;;;;;;;0.12;50.26;96028.69;10282313;28;96989;-72
2022/03/05 09:25:33;;;;;;;22.95;12.98;;;;;;;0.32;50.68;96018.03;10286815;28;96811;-71
2022/03/05 09:30:38;;;;;;;16.75;10.85;;;;;;;0.49;50.66;96022.19;10291576;28;96914;-71
2022/03/05 09:35:43;;;;;;;20.52;11.00;;;;;;;0.60;50.51;96019.81;10294863;28;97969;-71
2022/03/05 09:40:46;;;;;;;;;;;;;;;0.69;50.19;96017.59;10292984;28;97129;-72
2022/03/05 09:45:51;;;;;;;20.83;11.55;;;;;;;0.82;49.92;96015.94;10267722;28;97082;-72
2022/03/05 09:50:54;;;;;;;16.20;10.85;;;;;;;0.83;49.97;96012.47;10272382;28;96948;-71
2022/03/05 09:55:58;;;;;;;17.95;11.25;;;;;;;1.03;50.44;96018.13;10276544;28;97173;-71
2022/03/05 10:01:22;;;;;;;18.05;11.55;;;;;;;1.17;50.09;96018.09;10271415;28;97032;-72
2022/03/05 10:06:27;;;;;;;21.43;11.70;;;;;;;1.31;49.92;96014.66;10264707;28;97199;-72
2022/03/05 10:11:40;;;;;;;20.13;12.07;;;;;;;1.51;49.79;96021.94;10280642;28;96908;-71
2022/03/05 10:16:45;;;;;;;19.15;11.80;;;;;;;1.69;49.70;96003.66;10272992;28;96875;-71
2022/03/05 10:21:59;;;;;;;22.58;14.25;;;;;;;1.84;49.13;95999.28;10276394;28;101228;-73
2022/03/05 10:27:03;;;;;;;20.23;11.63;;;;;;;1.98;49.46;95988.88;10278920;28;96769;-72
2022/03/05 10:32:10;;;;;;;21.52;12.00;;;;;;;2.16;48.90;95986.00;10275618;28;96913;-71
2022/03/05 10:37:13;;;;;;;19.48;12.68;;;;;;;2.33;48.66;95985.69;10282257;28;97000;-72
2022/03/05 10:42:19;;;;;;;19.90;12.05;;;;;;;2.60;48.17;95985.59;10265034;28;97469;-71
2022/03/05 10:47:25;;;;;;;17.65;11.18;;;;;;;2.86;48.49;95986.38;10283192;28;96980;-72
2022/03/05 10:52:28;;;;;;;19.88;11.73;;;;;;;3.04;48.05;95979.09;10288774;28;97013;-71
2022/03/05 10:57:31;;;;;;;18.00;11.50;;;;;;;3.22;47.35;95981.31;10264478;28;96948;-71
2022/03/05 11:02:36;;;;;;;15.98;10.90;;;;;;;3.42;46.83;95983.28;10273963;28;96832;-72
2022/03/05 11:07:39;;;;;;;17.05;10.38;;;;;;;3.58;46.56;95974.44;10280649;28;97201;-71
2022/03/05 11:12:45;;;;;;;15.75;9.90;;;;;;;3.69;46.06;95971.91;10276870;28;97089;-72
2022/03/05 11:17:50;;;;;;;16.58;9.90;;;;;;;3.86;46.13;95969.84;10275494;28;97003;-71
2022/03/05 11:22:55;;;;;;;17.05;11.73;;;;;;;3.97;45.40;95965.53;10276510;28;97103;-71
2022/03/05 11:28:00;;;;;;;18.17;12.30;;;;;;;4.16;44.98;95962.41;10266899;28;97517;-71
2022/03/05 11:33:10;;;;;;;20.02;11.68;;;;;;;4.33;44.57;95962.88;10268758;28;97074;-71
2022/03/05 11:38:33;;;;;;;18.58;10.95;;;;;;;4.45;44.48;95950.78;10273657;28;97365;-71
2022/03/05 11:43:43;;;;;;;18.98;11.75;;;;;;;4.61;44.38;95953.03;10284578;28;97724;-71
2022/03/05 11:49:01;;;;;;;19.13;12.13;;;;;;;4.79;44.42;95941.25;10276881;28;96881;-71
2022/03/05 11:54:06;;;;;;;17.02;11.48;;;;;;;4.94;43.96;95942.66;10276855;28;97084;-72
2022/03/05 11:59:32;;;;;;;18.02;12.00;;;;;;;5.17;43.86;95937.44;10273641;28;96921;-71
2022/03/05 12:04:46;;;;;;;18.30;11.75;;;;;;;5.30;44.02;95927.72;10278449;28;97072;-71
2022/03/05 12:09:57;;;;;;;16.80;11.38;;;;;;;5.39;43.85;95926.16;10282731;28;96967;-72
2022/03/05 12:15:14;;;;;;;18.90;12.15;;;;;;;5.51;43.62;95929.53;10263073;28;98890;-71
2022/03/05 12:20:21;;;;;;;19.92;12.45;;;;;;;5.59;43.77;95916.78;10289036;28;97109;-71
2022/03/05 12:25:25;;;;;;;19.92;11.27;;;;;;;5.71;43.01;95920.97;10283388;28;97269;-72
2022/03/05 12:30:33;;;;;;;18.95;11.48;;;;;;;5.84;42.42;95914.75;10260631;28;96907;-71
2022/03/05 12:35:39;;;;;;;18.00;11.45;;;;;;;6.00;42.38;95912.56;10286308;28;97119;-71
2022/03/05 12:40:42;;;;;;;17.10;11.23;;;;;;;6.20;41.75;95904.88;10271014;28;98174;-72
2022/03/05 12:45:46;;;;;;;16.33;10.90;;;;;;;6.32;41.45;95901.25;10268051;28;99940;-71
2022/03/05 12:50:52;;;;;;;16.80;10.50;;;;;;;6.33;41.62;95889.09;10283690;28;96878;-71
2022/03/05 12:55:57;;;;;;;15.32;10.48;;;;;;;6.52;40.87;95884.00;10278501;28;96849;-72
2022/03/05 13:01:02;;;;;;;13.23;9.93;;;;;;;6.70;40.27;95873.78;10270323;28;97011;-71
2022/03/05 13:06:08;;;;;;;15.18;10.10;;;;;;;6.83;40.08;95870.94;10282999;28;96844;-71
2022/03/05 13:11:13;;;;;;;15.52;10.45;;;;;;;7.03;39.71;95877.03;10281202;28;96960;-72
2022/03/05 13:16:21;;;;;;;17.90;11.13;;;;;;;7.06;39.90;95868.97;10278989;28;97221;-71
2022/03/05 13:21:31;;;;;;;15.82;10.73;;;;;;;6.70;39.29;95871.19;10266974;28;96963;-71
2022/03/05 13:26:34;;;;;;;15.35;10.25;;;;;;;6.86;38.84;95873.28;10274629;28;96964;-71
2022/03/05 13:31:38;;;;;;;14.43;9.80;;;;;;;7.13;38.38;95861.47;10274359;28;96823;-71
2022/03/05 13:36:42;;;;;;;13.60;9.77;;;;;;;7.38;37.95;95857.50;10280716;28;96817;-71
2022/03/05 13:41:47;;;;;;;15.10;9.68;;;;;;;7.66;37.96;95857.63;10275326;28;96897;-71
2022/03/05 13:46:53;;;;;;;13.53;8.90;;;;;;;8.00;37.36;95859.75;10282287;28;96921;-71
2022/03/05 13:51:59;;;;;;;11.82;8.70;;;;;;;8.14;36.00;95856.69;10269696;28;97581;-72
2022/03/05 13:57:03;;;;;;;12.05;8.68;;;;;;;8.49;35.96;95847.38;10268580;28;96992;-72
2022/03/05 14:02:08;;;;;;;13.38;8.60;;;;;;;8.92;35.61;95836.28;10277132;28;96969;-72
2022/03/05 14:07:12;;;;;;;;;;;;;;;9.06;35.41;95834.97;10283035;28;97009;-72
2022/03/05 14:12:18;;;;;;;11.63;8.25;;;;;;;9.45;34.61;95832.09;10277490;28;96811;-72
2022/03/05 14:17:30;;;;;;;11.23;8.05;;;;;;;9.94;33.90;95836.00;10277064;28;96898;-72
2022/03/05 14:22:37;;;;;;;10.40;7.47;;;;;;;10.18;33.25;95838.78;10281347;28;96937;-72
2022/03/05 14:27:40;;;;;;;10.25;7.60;;;;;;;10.47;32.44;95836.78;10266580;28;97353;-72
2022/03/05 14:32:43;;;;;;;10.13;7.03;;;;;;;10.72;32.23;95822.84;10279250;28;96941;-72
2022/03/05 14:37:49;;;;;;;12.05;7.43;;;;;;;10.45;31.23;95829.09;10280169;28;97092;-71
2022/03/05 14:42:53;;;;;;;9.82;7.40;;;;;;;10.70;31.55;95832.59;10267537;28;96949;-72
2022/03/05 14:48:06;;;;;;;10.23;7.90;;;;;;;11.23;30.78;95825.38;10290839;28;96824;-72
2022/03/05 14:53:11;;;;;;;9.35;6.97;;;;;;;11.43;30.16;95823.28;10278196;28;98389;-73
2022/03/05 14:58:13;;;;;;;8.83;6.23;;;;;;;11.79;30.06;95822.97;10273114;28;97046;-72
2022/03/05 15:03:16;;;;;;;10.52;7.07;;;;;;;12.10;29.98;95825.69;10272668;28;97322;-72
2022/03/05 15:08:21;;;;;;;9.35;7.10;;;;;;;12.20;29.53;95816.84;10274464;28;97260;-72
2022/03/05 15:13:24;;;;;;;9.82;7.65;;;;;;;12.08;29.20;95819.81;10286274;28;97729;-72
2022/03/05 15:18:27;;;;;;;9.63;7.18;;;;;;;11.95;28.76;95816.88;10271798;28;96902;-72
2022/03/05 15:23:32;;;;;;;10.02;7.38;;;;;;;12.01;29.14;95811.00;10274481;28;96743;-72
2022/03/05 15:28:36;;;;;;;13.05;8.13;;;;;;;12.25;28.46;95809.31;10274146;28;96848;-72
2022/03/05 15:33:43;;;;;;;10.93;7.97;;;;;;;11.91;28.61;95815.59;10274587;28;97312;-72
2022/03/05 15:38:47;;;;;;;10.38;7.70;;;;;;;11.51;27.76;95799.75;10272319;28;97209;-72
2022/03/05 15:43:50;;;;;;;11.67;8.00;;;;;;;11.48;28.57;95807.94;10281708;28;97053;-72
2022/03/05 15:48:57;;;;;;;11.63;7.72;;;;;;;11.47;27.78;95815.97;10265423;28;96859;-71
2022/03/05 15:54:02;;;;;;;11.95;8.70;;;;;;;10.70;27.23;95821.34;10267041;28;98186;-72
2022/03/05 15:59:05;;;;;;;12.80;8.40;;;;;;;11.43;28.02;95817.25;10273877;28;97092;-72
2022/03/05 16:04:08;;;;;;;11.63;8.65;;;;;;;11.92;27.98;95806.78;10279389;28;96865;-72
2022/03/05 16:09:13;;;;;;;10.88;8.30;;;;;;;11.84;28.00;95810.19;10263875;28;96915;-72
2022/03/05 16:14:16;;;;;;;11.73;8.87;;;;;;;11.54;27.97;95806.47;10285227;28;96785;-72
2022/03/05 16:19:19;;;;;;;10.77;8.02;;;;;;;11.78;28.61;95817.88;10279617;28;99623;-72
2022/03/05 16:24:25;;;;;;;;;;;;;;;11.40;28.56;95812.34;10261253;28;97073;-72
2022/03/05 16:29:28;;;;;;;10.85;7.95;;;;;;;11.11;28.39;95805.78;10270929;28;96913;-72
2022/03/05 16:34:31;;;;;;;13.18;8.75;;;;;;;10.41;28.37;95806.91;10282073;28;96940;-72
2022/03/05 16:39:36;;;;;;;11.40;8.07;;;;;;;10.68;28.66;95813.66;10261568;28;96797;-72
2022/03/05 16:44:40;;;;;;;;;;;;;;;10.67;28.86;95811.22;10270528;28;97053;-72
2022/03/05 16:49:43;;;;;;;10.05;7.20;;;;;;;10.36;28.80;95812.59;10299229;28;97050;-72
2022/03/05 16:54:48;;;;;;;10.80;8.23;;;;;;;9.74;29.38;95814.53;10264050;28;96858;-71
2022/03/05 16:59:51;;;;;;;12.00;8.90;;;;;;;9.18;30.18;95824.34;10279222;28;96897;-72
2022/03/05 17:04:54;;;;;;;17.02;11.30;;;;;;;8.46;30.80;95830.25;10281432;28;96960;-72
2022/03/05 17:10:01;;;;;;;13.82;10.50;;;;;;;7.71;32.20;95825.03;10275121;28;96894;-72
2022/03/05 17:15:06;;;;;;;15.18;10.90;;;;;;;7.41;32.44;95834.66;10272842;28;96788;-72
2022/03/05 17:20:11;;;;;;;14.27;10.10;;;;;;;7.29;32.75;95834.94;10284774;28;97469;-71
2022/03/05 17:25:15;;;;;;;16.17;11.02;;;;;;;7.14;33.28;95832.75;10277679;28;97405;-72
2022/03/05 17:30:18;;;;;;;17.35;10.85;;;;;;;6.79;34.05;95841.84;10275491;28;96959;-71
2022/03/05 17:35:21;;;;;;;17.90;11.02;;;;;;;6.33;35.02;95848.44;10279351;28;97336;-72
2022/03/05 17:40:24;;;;;;;16.10;11.38;;;;;;;5.80;35.88;95843.41;10293842;28;97450;-71
2022/03/05 17:45:27;;;;;;;15.77;10.30;;;;;;;5.32;36.66;95842.13;10266114;28;96910;-71
2022/03/05 17:50:30;;;;;;;14.85;9.50;;;;;;;4.98;37.01;95849.22;10275032;28;96959;-72
2022/03/05 17:55:36;;;;;;;11.95;8.82;;;;;;;4.72;37.35;95849.53;10277383;28;96945;-71
2022/03/05 18:00:40;;;;;;;14.83;10.23;;;;;;;4.46;37.83;95859.34;10270778;28;97508;-71
2022/03/05 18:05:44;;;;;;;14.53;10.27;;;;;;;4.37;37.82;95855.69;10273874;28;96901;-71
2022/03/05 18:10:48;;;;;;;14.02;9.80;;;;;;;4.13;39.20;95859.22;10275168;28;96908;-72
2022/03/05 18:15:51;;;;;;;14.63;9.60;;;;;;;3.87;39.40;95857.81;10266968;28;96930;-72
2022/03/05 18:20:55;;;;;;;14.75;9.65;;;;;;;3.64;40.00;95860.34;10283260;28;97787;-71
2022/03/05 18:25:59;;;;;;;14.20;8.70;;;;;;;3.40;40.71;95860.41;10275718;28;97089;-72
2022/03/05 18:31:02;;;;;;;14.93;9.07;;;;;;;3.21;41.07;95859.16;10277005;28;97116;-71
2022/03/05 18:36:06;;;;;;;12.45;8.45;;;;;;;3.13;40.74;95861.47;10298578;28;96842;-71
2022/03/05 18:41:10;;;;;;;14.95;8.35;;;;;;;3.06;40.71;95866.25;10275125;28;96987;-71
2022/03/05 18:46:13;;;;;;;13.55;8.93;;;;;;;3.12;40.30;95856.41;10271273;28;96915;-71
2022/03/05 18:51:16;;;;;;;14.13;8.43;;;;;;;3.17;39.55;95859.50;10279413;28;96838;-72
2022/03/05 18:56:21;;;;;;;15.13;9.73;;;;;;;3.21;39.23;95858.34;10268825;28;98262;-71
2022/03/05 19:01:24;;;;;;;17.97;10.70;;;;;;;3.33;38.65;95869.53;10266225;28;96877;-72
2022/03/05 19:06:27;;;;;;;20.55;11.52;;;;;;;3.44;39.07;95870.38;10278115;28;96899;-71
2022/03/05 19:11:32;;;;;;;17.52;11.23;;;;;;;3.41;39.18;95870.63;10286538;28;96885;-71
2022/03/05 19:16:34;;;;;;;21.13;13.43;;;;;;;3.45;39.33;95874.63;10275582;28;96958;-71
2022/03/05 19:21:37;;;;;;;27.75;14.50;;;;;;;3.45;39.93;95874.63;10277357;28;97163;-71
2022/03/05 19:26:42;;;;;;;20.10;13.10;;;;;;;3.38;40.19;95873.44;10278327;28;96822;-71
2022/03/05 19:31:45;;;;;;;18.00;11.27;;;;;;;3.19;39.78;95880.88;10276257;28;96855;-71
2022/03/05 19:36:52;;;;;;;19.42;12.02;;;;;;;3.12;39.89;95874.47;10279909;28;100197;-71
2022/03/05 19:41:56;;;;;;;21.45;14.60;;;;;;;2.97;40.47;95877.25;10276469;28;97152;-71
2022/03/05 19:46:59;;;;;;;23.65;15.10;;;;;;;2.78;41.11;95875.16;10271326;28;97586;-71
2022/03/05 19:52:03;;;;;;;25.52;15.68;;;;;;;2.68;41.32;95882.72;10276223;28;96870;-71
2022/03/05 19:57:08;;;;;;;21.10;15.75;;;;;;;2.57;41.21;95887.81;10265764;28;97054;-71
2022/03/05 20:02:10;;;;;;;23.02;14.55;;;;;;;2.36;42.31;95886.72;10274101;28;96957;-71
2022/03/05 20:07:14;;;;;;;22.02;14.02;;;;;;;2.09;42.55;95897.97;10278555;28;97668;-71
2022/03/05 20:12:18;;;;;;;22.25;13.82;;;;;;;2.06;42.75;95904.19;10274339;28;97067;-71
2022/03/05 20:17:21;;;;;;;24.20;14.65;;;;;;;1.71;43.29;95894.50;10273989;28;97293;-71
2022/03/05 20:22:24;;;;;;;26.17;14.35;;;;;;;1.37;44.13;95895.88;10279343;28;96962;-71
2022/03/05 20:27:29;;;;;;;23.40;14.75;;;;;;;1.20;44.01;95899.53;10261624;28;97081;-71
2022/03/05 20:32:33;;;;;;;16.42;9.60;;;;;;;1.18;44.18;95906.53;10272262;28;96922;-72
2022/03/05 20:37:36;;;;;;;28.38;17.75;;;;;;;1.12;44.00;95905.19;10271992;28;97887;-71
2022/03/05 20:42:42;;;;;;;20.92;12.98;;;;;;;1.08;43.84;95910.63;10260371;28;96737;-71
2022/03/05 20:47:45;;;;;;;26.35;15.90;;;;;;;1.01;44.03;95917.88;10283573;28;97228;-71
2022/03/05 20:52:48;;;;;;;24.15;14.45;;;;;;;0.80;44.90;95923.44;10279798;28;96900;-71
2022/03/05 20:57:52;;;;;;;20.38;12.82;;;;;;;0.54;45.42;95922.50;10263231;28;97067;-72
2022/03/05 21:02:55;;;;;;;13.40;8.88;;;;;;;0.37;45.46;95915.81;10276628;28;97155;-71
2022/03/05 21:08:06;;;;;;;12.25;7.95;;;;;;;0.29;45.87;95914.63;10278505;28;97141;-72
2022/03/05 21:13:10;;;;;;;13.52;8.40;;;;;;;0.31;45.03;95916.19;10285548;28;96896;-71
2022/03/05 21:18:13;;;;;;;11.40;6.93;;;;;;;0.37;44.30;95926.09;10269829;28;99843;-71
2022/03/05 21:23:16;;;;;;;15.57;8.95;;;;;;;0.39;44.02;95920.84;10278055;28;97143;-71
2022/03/05 21:28:20;;;;;;;13.23;8.73;;;;;;;0.29;44.56;95928.31;10276753;28;97489;-71
2022/03/05 21:33:25;;;;;;;20.40;12.15;;;;;;;0.22;44.90;95934.75;10277625;28;96852;-71
2022/03/05 21:38:28;;;;;;;27.25;16.40;;;;;;;0.17;44.93;95929.06;10275945;28;96888;-71
2022/03/05 21:43:32;;;;;;;28.17;15.98;;;;;;;0.17;45.33;95929.06;10277184;28;97016;-71
2022/03/05 21:48:35;;;;;;;22.05;12.07;;;;;;;0.27;44.99;95917.28;10283625;28;97020;-72
2022/03/05 21:53:38;;;;;;;26.95;15.73;;;;;;;0.43;44.85;95922.34;10273801;28;97128;-71
2022/03/05 21:58:42;;;;;;;13.45;8.50;;;;;;;0.74;44.44;95908.44;10276965;28;96853;-71
2022/03/05 22:03:45;;;;;;;14.87;9.30;;;;;;;0.84;44.12;95923.28;10283027;28;98814;-71
2022/03/05 22:08:49;;;;;;;13.23;8.52;;;;;;;0.92;43.75;95915.91;10273894;28;99201;-71
2022/03/05 22:13:57;;;;;;;15.05;8.80;;;;;;;0.98;43.32;95918.06;10275787;28;97093;-71
2022/03/05 22:18:59;;;;;;;15.57;9.33;;;;;;;1.03;43.48;95921.19;10269055;28;98243;-71
2022/03/05 22:24:02;;;;;;;13.27;8.65;;;;;;;1.07;43.33;95908.94;10269077;28;96937;-71
2022/03/05 22:29:07;;;;;;;15.18;8.30;;;;;;;1.21;42.71;95905.50;10305118;28;96787;-71
2022/03/05 22:34:10;;;;;;;20.17;10.57;;;;;;;1.13;42.86;95901.66;10281719;28;96904;-71
2022/03/05 22:39:12;;;;;;;17.35;9.77;;;;;;;0.99;43.20;95904.31;10266495;28;96920;-72
2022/03/05 22:44:17;;;;;;;23.75;13.38;;;;;;;0.74;43.35;95913.56;10278014;28;98239;-72
2022/03/05 22:49:20;;;;;;;26.40;15.15;;;;;;;0.58;43.63;95911.13;10288062;28;97819;-72
2022/03/05 22:54:23;;;;;;;23.98;14.40;;;;;;;0.40;43.54;95910.50;10289468;28;96872;-71
2022/03/05 22:59:28;;;;;;;29.05;17.23;;;;;;;0.21;44.64;95899.69;10290472;28;96948;-71
2022/03/05 23:04:30;;;;;;;32.03;17.48;;;;;;;0.06;44.51;95909.13;10299898;28;98202;-71
2022/03/05 23:09:35;;;;;;;26.88;15.43;;;;;;;-0.08;44.93;95909.13;10280062;28;96917;-71
2022/03/05 23:14:40;;;;;;;35.92;21.20;;;;;;;-0.19;44.52;95920.84;10276617;28;96831;-71
2022/03/05 23:19:43;;;;;;;37.08;22.30;;;;;;;-0.27;45.29;95929.91;10282478;28;97086;-71
2022/03/05 23:24:45;;;;;;;30.13;17.15;;;;;;;-0.45;45.34;95924.94;10278618;28;98148;-71